KCPU

Calaveras Co-Maury Rasmussen Field Airport

San Andreas, California, USA
METAR KCPU 170750Z AUTO 12021G26KT 4SM BR BKN050 OVC065 10/09 A3005 RMK AO2 T00960086 401600036
Observed Flight Rules
Dec-17 @ 07:50 UTC (39 minutes ago) Marginal Visual Flight Rules
Wind Visibility Clouds Conditions
120° at 21 knots
 Gusting to 26 knots
4 miles
  • Broken at 5,000' AGL
  • Overcast at 6,500' AGL
  • Mist
Temperatures Readings
Current 10°C / 50°F
Dewpoint 9°C / 48°F
Humidity 94%
Altimeter 30.05" Hg
Pressure 1018 hPa
Elevation 404
METAR KCPU 170750Z AUTO 12021G26KT 4SM BR BKN050 OVC065 10/09 A3005 RMK AO2 T00960086 401600036
Observed Flight Rules
Dec-17 @ 07:50 UTC
(39 minutes ago)
MVFR
Wind Visibility
120° at 21 knots
 Gusting to 26 knots
4 miles
Clouds
  • Broken at 5,000' AGL
  • Overcast at 6,500' AGL
Conditions
  • Mist
Temperature Dewpoint
10°C / 50°F 9°C / 48°F
Humidity Altimeter Pressure
94% 30.05" Hg 1018 hPa